sensor_id;sensor_type;location;lat;lon;timestamp;temperature;humidity
32502;DHT22;18952;52.516;13.460;2022-09-09T00:01:52;14.60;99.90
32502;DHT22;18952;52.516;13.460;2022-09-09T00:04:39;14.60;99.90
32502;DHT22;18952;52.516;13.460;2022-09-09T00:07:43;14.60;99.90
32502;DHT22;18952;52.516;13.460;2022-09-09T00:16:24;14.50;99.90
32502;DHT22;18952;52.516;13.460;2022-09-09T00:19:12;14.50;99.90
32502;DHT22;18952;52.516;13.460;2022-09-09T00:22:01;14.50;99.90
32502;DHT22;18952;52.516;13.460;2022-09-09T00:24:54;14.40;99.90
32502;DHT22;18952;52.516;13.460;2022-09-09T00:27:39;14.50;99.90
32502;DHT22;18952;52.516;13.460;2022-09-09T00:30:20;14.40;99.90
32502;DHT22;18952;52.516;13.460;2022-09-09T00:32:50;14.50;99.90
32502;DHT22;18952;52.516;13.460;2022-09-09T00:35:35;14.40;99.90
32502;DHT22;18952;52.516;13.460;2022-09-09T00:38:24;14.40;99.90
32502;DHT22;18952;52.516;13.460;2022-09-09T00:43:57;14.40;99.90
32502;DHT22;18952;52.516;13.460;2022-09-09T00:58:00;14.30;99.90
32502;DHT22;18952;52.516;13.460;2022-09-09T01:00:52;14.30;99.90
32502;DHT22;18952;52.516;13.460;2022-09-09T01:03:38;14.20;99.90
32502;DHT22;18952;52.516;13.460;2022-09-09T01:06:29;14.20;99.90
32502;DHT22;18952;52.516;13.460;2022-09-09T01:12:18;14.20;99.90
32502;DHT22;18952;52.516;13.460;2022-09-09T01:17:51;14.20;99.90
32502;DHT22;18952;52.516;13.460;2022-09-09T01:20:27;14.20;99.90
32502;DHT22;18952;52.516;13.460;2022-09-09T01:23:36;14.10;99.90
32502;DHT22;18952;52.516;13.460;2022-09-09T01:26:37;14.10;99.90
32502;DHT22;18952;52.516;13.460;2022-09-09T01:29:11;14.10;99.90
32502;DHT22;18952;52.516;13.460;2022-09-09T01:31:42;14.10;99.90
32502;DHT22;18952;52.516;13.460;2022-09-09T01:34:12;14.10;99.90
32502;DHT22;18952;52.516;13.460;2022-09-09T01:37:04;14.10;99.90
32502;DHT22;18952;52.516;13.460;2022-09-09T01:39:36;14.10;99.90
32502;DHT22;18952;52.516;13.460;2022-09-09T01:42:05;14.10;99.90
32502;DHT22;18952;52.516;13.460;2022-09-09T01:44:34;14.00;99.90
32502;DHT22;18952;52.516;13.460;2022-09-09T01:47:04;14.00;99.90
32502;DHT22;18952;52.516;13.460;2022-09-09T01:49:32;14.00;99.90
32502;DHT22;18952;52.516;13.460;2022-09-09T01:51:59;14.00;99.90
32502;DHT22;18952;52.516;13.460;2022-09-09T01:54:28;14.00;99.90
32502;DHT22;18952;52.516;13.460;2022-09-09T01:57:28;14.00;99.90
32502;DHT22;18952;52.516;13.460;2022-09-09T02:02:30;14.00;99.90
32502;DHT22;18952;52.516;13.460;2022-09-09T02:05:22;13.90;99.90
32502;DHT22;18952;52.516;13.460;2022-09-09T02:08:11;14.00;99.90
32502;DHT22;18952;52.516;13.460;2022-09-09T02:10:59;13.90;99.90
32502;DHT22;18952;52.516;13.460;2022-09-09T02:13:29;13.90;99.90
32502;DHT22;18952;52.516;13.460;2022-09-09T02:16:27;13.90;99.90
32502;DHT22;18952;52.516;13.460;2022-09-09T02:19:01;13.90;99.90
32502;DHT22;18952;52.516;13.460;2022-09-09T02:21:30;13.90;99.90
32502;DHT22;18952;52.516;13.460;2022-09-09T02:24:00;13.90;99.90
32502;DHT22;18952;52.516;13.460;2022-09-09T02:26:28;13.90;99.90
32502;DHT22;18952;52.516;13.460;2022-09-09T02:29:00;13.90;99.90
32502;DHT22;18952;52.516;13.460;2022-09-09T02:31:28;13.90;99.90
32502;DHT22;18952;52.516;13.460;2022-09-09T02:34:00;13.80;99.90
32502;DHT22;18952;52.516;13.460;2022-09-09T02:36:31;13.80;99.90
32502;DHT22;18952;52.516;13.460;2022-09-09T02:38:58;13.80;99.90
32502;DHT22;18952;52.516;13.460;2022-09-09T02:41:32;13.80;99.90
32502;DHT22;18952;52.516;13.460;2022-09-09T02:44:01;13.80;99.90
32502;DHT22;18952;52.516;13.460;2022-09-09T02:55:35;13.70;99.90
32502;DHT22;18952;52.516;13.460;2022-09-09T02:58:06;13.70;99.90
32502;DHT22;18952;52.516;13.460;2022-09-09T03:00:34;13.70;99.90
32502;DHT22;18952;52.516;13.460;2022-09-09T03:03:07;13.70;99.90
32502;DHT22;18952;52.516;13.460;2022-09-09T03:05:35;13.70;99.90
32502;DHT22;18952;52.516;13.460;2022-09-09T03:08:04;13.70;99.90
32502;DHT22;18952;52.516;13.460;2022-09-09T03:10:33;13.70;99.90
32502;DHT22;18952;52.516;13.460;2022-09-09T03:12:59;13.70;99.90
32502;DHT22;18952;52.516;13.460;2022-09-09T03:15:28;13.70;99.90
32502;DHT22;18952;52.516;13.460;2022-09-09T03:17:56;13.70;99.90
32502;DHT22;18952;52.516;13.460;2022-09-09T03:20:26;13.60;99.90
32502;DHT22;18952;52.516;13.460;2022-09-09T03:22:55;13.60;99.90
32502;DHT22;18952;52.516;13.460;2022-09-09T03:25:23;13.60;99.90
32502;DHT22;18952;52.516;13.460;2022-09-09T03:27:51;13.60;99.90
32502;DHT22;18952;52.516;13.460;2022-09-09T03:30:19;13.60;99.90
32502;DHT22;18952;52.516;13.460;2022-09-09T03:32:47;13.60;99.90
32502;DHT22;18952;52.516;13.460;2022-09-09T03:35:17;13.50;99.90
32502;DHT22;18952;52.516;13.460;2022-09-09T03:37:45;13.50;99.90
32502;DHT22;18952;52.516;13.460;2022-09-09T03:40:15;13.50;99.90
32502;DHT22;18952;52.516;13.460;2022-09-09T03:42:45;13.40;99.90
32502;DHT22;18952;52.516;13.460;2022-09-09T03:45:18;13.50;99.90
32502;DHT22;18952;52.516;13.460;2022-09-09T03:47:49;13.40;99.90
32502;DHT22;18952;52.516;13.460;2022-09-09T03:50:22;13.50;99.90
32502;DHT22;18952;52.516;13.460;2022-09-09T03:52:48;13.40;99.90
32502;DHT22;18952;52.516;13.460;2022-09-09T03:55:16;13.40;99.90
32502;DHT22;18952;52.516;13.460;2022-09-09T03:57:43;13.40;99.90
32502;DHT22;18952;52.516;13.460;2022-09-09T04:00:10;13.40;99.90
32502;DHT22;18952;52.516;13.460;2022-09-09T04:02:38;13.40;99.90
32502;DHT22;18952;52.516;13.460;2022-09-09T04:05:07;13.40;99.90
32502;DHT22;18952;52.516;13.460;2022-09-09T04:07:35;13.40;99.90
32502;DHT22;18952;52.516;13.460;2022-09-09T04:10:03;13.40;99.90
32502;DHT22;18952;52.516;13.460;2022-09-09T04:12:30;13.40;99.90
32502;DHT22;18952;52.516;13.460;2022-09-09T04:14:58;13.40;99.90
32502;DHT22;18952;52.516;13.460;2022-09-09T04:17:25;13.40;99.90
32502;DHT22;18952;52.516;13.460;2022-09-09T04:19:53;13.40;99.90
32502;DHT22;18952;52.516;13.460;2022-09-09T04:22:21;13.40;99.90
32502;DHT22;18952;52.516;13.460;2022-09-09T04:24:49;13.40;99.90
32502;DHT22;18952;52.516;13.460;2022-09-09T04:27:18;13.40;99.90
32502;DHT22;18952;52.516;13.460;2022-09-09T04:29:45;13.40;99.90
32502;DHT22;18952;52.516;13.460;2022-09-09T04:32:13;13.40;99.90
32502;DHT22;18952;52.516;13.460;2022-09-09T04:34:42;13.40;99.90
32502;DHT22;18952;52.516;13.460;2022-09-09T04:37:17;13.40;99.90
32502;DHT22;18952;52.516;13.460;2022-09-09T04:39:45;13.40;99.90
32502;DHT22;18952;52.516;13.460;2022-09-09T04:42:11;13.40;99.90
32502;DHT22;18952;52.516;13.460;2022-09-09T04:44:39;13.40;99.90
32502;DHT22;18952;52.516;13.460;2022-09-09T04:47:07;13.40;99.90
32502;DHT22;18952;52.516;13.460;2022-09-09T04:49:35;13.40;99.90
32502;DHT22;18952;52.516;13.460;2022-09-09T04:52:03;13.40;99.90
32502;DHT22;18952;52.516;13.460;2022-09-09T04:54:31;13.40;99.90
32502;DHT22;18952;52.516;13.460;2022-09-09T04:57:01;13.50;99.90
32502;DHT22;18952;52.516;13.460;2022-09-09T04:59:28;13.50;99.90
32502;DHT22;18952;52.516;13.460;2022-09-09T05:01:55;13.50;99.90
32502;DHT22;18952;52.516;13.460;2022-09-09T05:04:24;13.50;99.90
32502;DHT22;18952;52.516;13.460;2022-09-09T05:06:52;13.50;99.90
32502;DHT22;18952;52.516;13.460;2022-09-09T05:09:20;13.50;99.90
32502;DHT22;18952;52.516;13.460;2022-09-09T05:11:50;13.60;99.90
32502;DHT22;18952;52.516;13.460;2022-09-09T05:14:25;13.60;99.90
32502;DHT22;18952;52.516;13.460;2022-09-09T05:16:52;13.60;99.90
32502;DHT22;18952;52.516;13.460;2022-09-09T05:19:24;13.60;99.90
32502;DHT22;18952;52.516;13.460;2022-09-09T05:22:03;13.60;99.90
32502;DHT22;18952;52.516;13.460;2022-09-09T05:24:31;13.70;99.90
32502;DHT22;18952;52.516;13.460;2022-09-09T05:26:57;13.70;99.90
32502;DHT22;18952;52.516;13.460;2022-09-09T05:29:26;13.70;99.90
32502;DHT22;18952;52.516;13.460;2022-09-09T05:31:53;13.70;99.90
32502;DHT22;18952;52.516;13.460;2022-09-09T05:34:21;13.70;99.90
32502;DHT22;18952;52.516;13.460;2022-09-09T05:36:49;13.80;99.90
32502;DHT22;18952;52.516;13.460;2022-09-09T05:39:17;13.80;99.90
32502;DHT22;18952;52.516;13.460;2022-09-09T05:41:45;13.80;99.90
32502;DHT22;18952;52.516;13.460;2022-09-09T05:44:12;13.80;99.90
32502;DHT22;18952;52.516;13.460;2022-09-09T05:46:41;13.90;99.90
32502;DHT22;18952;52.516;13.460;2022-09-09T05:49:09;13.90;99.90
32502;DHT22;18952;52.516;13.460;2022-09-09T05:51:37;13.90;99.90
32502;DHT22;18952;52.516;13.460;2022-09-09T05:54:05;13.90;99.90
32502;DHT22;18952;52.516;13.460;2022-09-09T05:56:31;13.90;99.90
32502;DHT22;18952;52.516;13.460;2022-09-09T05:59:00;13.90;99.90
32502;DHT22;18952;52.516;13.460;2022-09-09T06:01:30;14.00;99.90
32502;DHT22;18952;52.516;13.460;2022-09-09T06:03:59;14.00;99.90
32502;DHT22;18952;52.516;13.460;2022-09-09T06:06:31;14.00;99.90
32502;DHT22;18952;52.516;13.460;2022-09-09T06:08:59;14.00;99.90
32502;DHT22;18952;52.516;13.460;2022-09-09T06:11:31;14.10;99.90
32502;DHT22;18952;52.516;13.460;2022-09-09T06:14:00;14.10;99.90
32502;DHT22;18952;52.516;13.460;2022-09-09T06:16:29;14.10;99.90
32502;DHT22;18952;52.516;13.460;2022-09-09T06:18:57;14.10;99.90
32502;DHT22;18952;52.516;13.460;2022-09-09T06:21:28;14.10;99.90
32502;DHT22;18952;52.516;13.460;2022-09-09T06:23:56;14.20;99.90
32502;DHT22;18952;52.516;13.460;2022-09-09T06:26:34;14.20;99.90
32502;DHT22;18952;52.516;13.460;2022-09-09T06:29:04;14.20;99.90
32502;DHT22;18952;52.516;13.460;2022-09-09T06:31:34;14.30;99.90
32502;DHT22;18952;52.516;13.460;2022-09-09T06:34:05;14.30;99.90
32502;DHT22;18952;52.516;13.460;2022-09-09T06:36:36;14.30;99.90
32502;DHT22;18952;52.516;13.460;2022-09-09T06:39:05;14.30;99.90
32502;DHT22;18952;52.516;13.460;2022-09-09T06:41:39;14.30;99.90
32502;DHT22;18952;52.516;13.460;2022-09-09T06:44:06;14.40;99.90
32502;DHT22;18952;52.516;13.460;2022-09-09T06:46:35;14.40;99.90
32502;DHT22;18952;52.516;13.460;2022-09-09T06:49:03;14.50;99.90
32502;DHT22;18952;52.516;13.460;2022-09-09T06:51:34;14.50;99.90
32502;DHT22;18952;52.516;13.460;2022-09-09T06:54:03;14.50;99.90
32502;DHT22;18952;52.516;13.460;2022-09-09T06:56:32;14.60;99.90
32502;DHT22;18952;52.516;13.460;2022-09-09T06:59:06;14.70;99.90
32502;DHT22;18952;52.516;13.460;2022-09-09T07:01:36;14.70;99.90
32502;DHT22;18952;52.516;13.460;2022-09-09T07:04:04;14.70;99.90
32502;DHT22;18952;52.516;13.460;2022-09-09T07:06:34;14.80;99.90
32502;DHT22;18952;52.516;13.460;2022-09-09T07:09:07;14.80;99.90
32502;DHT22;18952;52.516;13.460;2022-09-09T07:11:46;14.90;99.90
32502;DHT22;18952;52.516;13.460;2022-09-09T07:14:15;15.00;99.90
32502;DHT22;18952;52.516;13.460;2022-09-09T07:16:44;15.00;99.90
32502;DHT22;18952;52.516;13.460;2022-09-09T07:19:13;15.10;99.90
32502;DHT22;18952;52.516;13.460;2022-09-09T07:21:41;15.10;99.90
32502;DHT22;18952;52.516;13.460;2022-09-09T07:24:10;15.20;99.90
32502;DHT22;18952;52.516;13.460;2022-09-09T07:26:42;15.30;99.90
32502;DHT22;18952;52.516;13.460;2022-09-09T07:29:11;15.30;99.90
32502;DHT22;18952;52.516;13.460;2022-09-09T07:31:43;15.30;99.90
32502;DHT22;18952;52.516;13.460;2022-09-09T07:34:17;15.50;99.90
32502;DHT22;18952;52.516;13.460;2022-09-09T07:36:48;15.50;99.90
32502;DHT22;18952;52.516;13.460;2022-09-09T07:39:16;15.60;99.90
32502;DHT22;18952;52.516;13.460;2022-09-09T07:41:48;15.70;99.90
32502;DHT22;18952;52.516;13.460;2022-09-09T07:44:19;15.70;99.90
32502;DHT22;18952;52.516;13.460;2022-09-09T07:46:49;15.80;99.90
32502;DHT22;18952;52.516;13.460;2022-09-09T07:49:17;15.90;99.90
32502;DHT22;18952;52.516;13.460;2022-09-09T07:51:59;16.00;99.90
32502;DHT22;18952;52.516;13.460;2022-09-09T07:54:27;16.10;99.90
32502;DHT22;18952;52.516;13.460;2022-09-09T07:56:55;16.20;99.90
32502;DHT22;18952;52.516;13.460;2022-09-09T07:59:24;16.30;99.90
32502;DHT22;18952;52.516;13.460;2022-09-09T08:01:52;16.40;99.90
32502;DHT22;18952;52.516;13.460;2022-09-09T08:04:20;16.50;99.90
32502;DHT22;18952;52.516;13.460;2022-09-09T08:06:53;16.60;99.90
32502;DHT22;18952;52.516;13.460;2022-09-09T08:09:22;16.70;99.90
32502;DHT22;18952;52.516;13.460;2022-09-09T08:11:50;16.80;99.90
32502;DHT22;18952;52.516;13.460;2022-09-09T08:14:18;16.80;99.90
32502;DHT22;18952;52.516;13.460;2022-09-09T08:16:48;16.80;99.90
32502;DHT22;18952;52.516;13.460;2022-09-09T08:19:15;16.70;99.90
32502;DHT22;18952;52.516;13.460;2022-09-09T08:21:44;16.70;99.90
32502;DHT22;18952;52.516;13.460;2022-09-09T08:24:12;16.60;99.90
32502;DHT22;18952;52.516;13.460;2022-09-09T08:26:44;16.70;99.90
32502;DHT22;18952;52.516;13.460;2022-09-09T08:29:13;16.70;99.90
32502;DHT22;18952;52.516;13.460;2022-09-09T08:31:51;16.70;99.90
32502;DHT22;18952;52.516;13.460;2022-09-09T08:34:24;16.70;99.90
32502;DHT22;18952;52.516;13.460;2022-09-09T08:36:53;16.70;99.90
32502;DHT22;18952;52.516;13.460;2022-09-09T08:39:21;16.70;99.90
32502;DHT22;18952;52.516;13.460;2022-09-09T08:50:34;16.90;99.90
32502;DHT22;18952;52.516;13.460;2022-09-09T08:55:57;17.00;99.90
32502;DHT22;18952;52.516;13.460;2022-09-09T08:58:28;17.00;99.90
32502;DHT22;18952;52.516;13.460;2022-09-09T09:04:03;17.20;99.90
32502;DHT22;18952;52.516;13.460;2022-09-09T09:06:42;17.30;99.90
32502;DHT22;18952;52.516;13.460;2022-09-09T09:12:01;17.40;99.90
32502;DHT22;18952;52.516;13.460;2022-09-09T09:14:34;17.60;99.90
32502;DHT22;18952;52.516;13.460;2022-09-09T09:17:06;17.70;99.90
32502;DHT22;18952;52.516;13.460;2022-09-09T09:19:35;17.80;99.90
32502;DHT22;18952;52.516;13.460;2022-09-09T09:22:46;17.90;99.90
32502;DHT22;18952;52.516;13.460;2022-09-09T09:25:21;18.10;99.90
32502;DHT22;18952;52.516;13.460;2022-09-09T09:28:16;18.20;99.90
32502;DHT22;18952;52.516;13.460;2022-09-09T09:30:52;18.30;99.90
32502;DHT22;18952;52.516;13.460;2022-09-09T09:33:47;18.40;99.90
32502;DHT22;18952;52.516;13.460;2022-09-09T09:36:16;18.60;99.90
32502;DHT22;18952;52.516;13.460;2022-09-09T09:38:58;18.70;99.90
32502;DHT22;18952;52.516;13.460;2022-09-09T09:41:47;18.80;99.90
32502;DHT22;18952;52.516;13.460;2022-09-09T09:44:28;18.70;99.90
32502;DHT22;18952;52.516;13.460;2022-09-09T09:47:32;18.70;99.90
32502;DHT22;18952;52.516;13.460;2022-09-09T09:50:00;18.70;99.90
32502;DHT22;18952;52.516;13.460;2022-09-09T09:52:30;18.60;99.90
32502;DHT22;18952;52.516;13.460;2022-09-09T09:54:58;18.50;99.90
32502;DHT22;18952;52.516;13.460;2022-09-09T09:57:38;18.50;99.90
32502;DHT22;18952;52.516;13.460;2022-09-09T10:02:44;18.50;99.90
32502;DHT22;18952;52.516;13.460;2022-09-09T10:05:22;18.50;99.90
32502;DHT22;18952;52.516;13.460;2022-09-09T10:08:27;18.50;99.90
32502;DHT22;18952;52.516;13.460;2022-09-09T10:11:20;18.50;99.90
32502;DHT22;18952;52.516;13.460;2022-09-09T10:13:53;18.60;99.90
32502;DHT22;18952;52.516;13.460;2022-09-09T10:19:05;18.60;99.90
32502;DHT22;18952;52.516;13.460;2022-09-09T10:22:03;18.50;99.90
32502;DHT22;18952;52.516;13.460;2022-09-09T10:28:26;18.70;99.90
32502;DHT22;18952;52.516;13.460;2022-09-09T10:37:11;18.90;99.90
32502;DHT22;18952;52.516;13.460;2022-09-09T10:39:44;18.90;99.90
32502;DHT22;18952;52.516;13.460;2022-09-09T10:42:30;18.90;99.90
32502;DHT22;18952;52.516;13.460;2022-09-09T10:45:32;18.90;99.90
32502;DHT22;18952;52.516;13.460;2022-09-09T10:56:21;19.10;99.90
32502;DHT22;18952;52.516;13.460;2022-09-09T10:58:56;19.10;99.90
32502;DHT22;18952;52.516;13.460;2022-09-09T11:01:31;19.10;99.90
32502;DHT22;18952;52.516;13.460;2022-09-09T11:05:21;19.20;99.90
32502;DHT22;18952;52.516;13.460;2022-09-09T11:07:20;19.40;99.90
32502;DHT22;18952;52.516;13.460;2022-09-09T11:09:58;19.40;99.90
32502;DHT22;18952;52.516;13.460;2022-09-09T11:12:27;19.50;99.90
32502;DHT22;18952;52.516;13.460;2022-09-09T11:15:06;19.50;99.90
32502;DHT22;18952;52.516;13.460;2022-09-09T11:17:41;19.60;99.90
32502;DHT22;18952;52.516;13.460;2022-09-09T11:20:12;19.50;99.90
32502;DHT22;18952;52.516;13.460;2022-09-09T11:23:05;19.60;99.90
32502;DHT22;18952;52.516;13.460;2022-09-09T11:25:42;19.70;99.90
32502;DHT22;18952;52.516;13.460;2022-09-09T11:28:39;19.90;99.90
32502;DHT22;18952;52.516;13.460;2022-09-09T11:34:03;20.00;99.90
32502;DHT22;18952;52.516;13.460;2022-09-09T11:41:51;20.10;99.90
32502;DHT22;18952;52.516;13.460;2022-09-09T11:44:26;20.10;99.90
32502;DHT22;18952;52.516;13.460;2022-09-09T11:46:56;20.20;99.90
32502;DHT22;18952;52.516;13.460;2022-09-09T11:49:42;20.30;99.90
32502;DHT22;18952;52.516;13.460;2022-09-09T11:52:19;20.40;99.90
32502;DHT22;18952;52.516;13.460;2022-09-09T11:54:49;20.40;99.90
32502;DHT22;18952;52.516;13.460;2022-09-09T11:57:32;20.40;99.90
32502;DHT22;18952;52.516;13.460;2022-09-09T12:00:00;20.40;99.90
32502;DHT22;18952;52.516;13.460;2022-09-09T12:02:28;20.40;99.90
32502;DHT22;18952;52.516;13.460;2022-09-09T12:10:28;20.70;99.90
32502;DHT22;18952;52.516;13.460;2022-09-09T12:13:17;20.70;99.90
32502;DHT22;18952;52.516;13.460;2022-09-09T12:15:50;20.90;99.90
32502;DHT22;18952;52.516;13.460;2022-09-09T12:18:37;21.30;99.90
32502;DHT22;18952;52.516;13.460;2022-09-09T12:21:28;21.60;99.90
32502;DHT22;18952;52.516;13.460;2022-09-09T12:26:38;22.00;99.90
32502;DHT22;18952;52.516;13.460;2022-09-09T12:29:28;22.20;99.90
32502;DHT22;18952;52.516;13.460;2022-09-09T12:32:15;22.30;99.90
32502;DHT22;18952;52.516;13.460;2022-09-09T12:37:41;22.40;99.90
32502;DHT22;18952;52.516;13.460;2022-09-09T12:40:29;22.40;99.90
32502;DHT22;18952;52.516;13.460;2022-09-09T12:42:57;22.40;99.90
32502;DHT22;18952;52.516;13.460;2022-09-09T12:45:26;22.40;99.90
32502;DHT22;18952;52.516;13.460;2022-09-09T12:47:59;22.40;99.90
32502;DHT22;18952;52.516;13.460;2022-09-09T12:50:33;22.40;99.90
32502;DHT22;18952;52.516;13.460;2022-09-09T12:53:23;22.40;99.90
32502;DHT22;18952;52.516;13.460;2022-09-09T12:56:02;22.30;99.90
32502;DHT22;18952;52.516;13.460;2022-09-09T12:58:37;22.20;99.90
32502;DHT22;18952;52.516;13.460;2022-09-09T13:03:52;22.30;99.90
32502;DHT22;18952;52.516;13.460;2022-09-09T13:06:26;22.40;99.90
32502;DHT22;18952;52.516;13.460;2022-09-09T13:08:59;22.40;99.90
32502;DHT22;18952;52.516;13.460;2022-09-09T13:11:38;22.40;99.90
32502;DHT22;18952;52.516;13.460;2022-09-09T13:14:27;22.30;99.90
32502;DHT22;18952;52.516;13.460;2022-09-09T13:17:00;22.20;99.90
32502;DHT22;18952;52.516;13.460;2022-09-09T13:19:30;22.10;99.90
32502;DHT22;18952;52.516;13.460;2022-09-09T13:21:59;22.00;99.90
32502;DHT22;18952;52.516;13.460;2022-09-09T13:24:33;22.10;99.90
32502;DHT22;18952;52.516;13.460;2022-09-09T13:27:24;22.10;99.90
32502;DHT22;18952;52.516;13.460;2022-09-09T13:29:54;22.00;99.90
32502;DHT22;18952;52.516;13.460;2022-09-09T13:32:21;22.00;99.90
32502;DHT22;18952;52.516;13.460;2022-09-09T13:35:22;22.10;99.90
32502;DHT22;18952;52.516;13.460;2022-09-09T13:37:50;22.20;99.90
32502;DHT22;18952;52.516;13.460;2022-09-09T13:40:20;22.30;99.90
32502;DHT22;18952;52.516;13.460;2022-09-09T13:42:52;22.30;99.90
32502;DHT22;18952;52.516;13.460;2022-09-09T13:45:22;22.40;99.90
32502;DHT22;18952;52.516;13.460;2022-09-09T13:47:51;22.50;99.90
32502;DHT22;18952;52.516;13.460;2022-09-09T13:50:30;22.60;99.90
32502;DHT22;18952;52.516;13.460;2022-09-09T13:52:59;22.90;99.90
32502;DHT22;18952;52.516;13.460;2022-09-09T13:55:28;23.10;99.90
32502;DHT22;18952;52.516;13.460;2022-09-09T13:58:02;23.60;99.90
32502;DHT22;18952;52.516;13.460;2022-09-09T14:00:32;24.00;99.90
32502;DHT22;18952;52.516;13.460;2022-09-09T14:03:01;24.00;99.90
32502;DHT22;18952;52.516;13.460;2022-09-09T14:05:32;23.80;99.90
32502;DHT22;18952;52.516;13.460;2022-09-09T14:08:00;23.50;99.90
32502;DHT22;18952;52.516;13.460;2022-09-09T14:10:27;23.40;99.90
32502;DHT22;18952;52.516;13.460;2022-09-09T14:12:55;23.20;99.90
32502;DHT22;18952;52.516;13.460;2022-09-09T14:15:26;23.10;99.90
32502;DHT22;18952;52.516;13.460;2022-09-09T14:17:55;23.00;99.90
32502;DHT22;18952;52.516;13.460;2022-09-09T14:20:23;23.00;99.90
32502;DHT22;18952;52.516;13.460;2022-09-09T14:22:51;23.00;99.90
32502;DHT22;18952;52.516;13.460;2022-09-09T14:25:19;23.20;99.90
32502;DHT22;18952;52.516;13.460;2022-09-09T14:27:45;23.10;99.90
32502;DHT22;18952;52.516;13.460;2022-09-09T14:30:13;23.20;99.90
32502;DHT22;18952;52.516;13.460;2022-09-09T14:32:40;23.40;99.90
32502;DHT22;18952;52.516;13.460;2022-09-09T14:35:08;23.70;99.90
32502;DHT22;18952;52.516;13.460;2022-09-09T14:37:36;24.20;99.90
32502;DHT22;18952;52.516;13.460;2022-09-09T14:40:03;24.50;99.90
32502;DHT22;18952;52.516;13.460;2022-09-09T14:42:30;24.70;99.90
32502;DHT22;18952;52.516;13.460;2022-09-09T14:44:58;24.70;99.90
32502;DHT22;18952;52.516;13.460;2022-09-09T14:47:26;24.90;99.90
32502;DHT22;18952;52.516;13.460;2022-09-09T14:49:54;25.00;99.90
32502;DHT22;18952;52.516;13.460;2022-09-09T14:52:22;24.80;99.90
32502;DHT22;18952;52.516;13.460;2022-09-09T14:54:48;24.50;99.90
32502;DHT22;18952;52.516;13.460;2022-09-09T14:57:15;24.30;99.90
32502;DHT22;18952;52.516;13.460;2022-09-09T14:59:43;24.00;99.90
32502;DHT22;18952;52.516;13.460;2022-09-09T15:02:11;23.70;99.90
32502;DHT22;18952;52.516;13.460;2022-09-09T15:04:38;23.30;99.90
32502;DHT22;18952;52.516;13.460;2022-09-09T15:07:06;23.10;99.90
32502;DHT22;18952;52.516;13.460;2022-09-09T15:09:33;23.00;99.90
32502;DHT22;18952;52.516;13.460;2022-09-09T15:12:02;22.90;99.90
32502;DHT22;18952;52.516;13.460;2022-09-09T15:14:30;22.80;99.90
32502;DHT22;18952;52.516;13.460;2022-09-09T15:16:56;22.70;99.90
32502;DHT22;18952;52.516;13.460;2022-09-09T15:19:24;22.60;99.90
32502;DHT22;18952;52.516;13.460;2022-09-09T15:21:51;22.80;99.90
32502;DHT22;18952;52.516;13.460;2022-09-09T15:24:19;23.10;99.90
32502;DHT22;18952;52.516;13.460;2022-09-09T15:26:46;23.50;99.90
32502;DHT22;18952;52.516;13.460;2022-09-09T15:29:14;24.00;99.90
32502;DHT22;18952;52.516;13.460;2022-09-09T15:31:42;24.30;99.90
32502;DHT22;18952;52.516;13.460;2022-09-09T15:34:10;24.80;99.60
32502;DHT22;18952;52.516;13.460;2022-09-09T15:36:40;24.90;98.00
32502;DHT22;18952;52.516;13.460;2022-09-09T15:39:10;25.10;97.20
32502;DHT22;18952;52.516;13.460;2022-09-09T15:41:39;25.20;95.40
32502;DHT22;18952;52.516;13.460;2022-09-09T15:44:10;25.10;95.60
32502;DHT22;18952;52.516;13.460;2022-09-09T15:46:49;25.00;95.50
32502;DHT22;18952;52.516;13.460;2022-09-09T15:49:24;24.90;96.10
32502;DHT22;18952;52.516;13.460;2022-09-09T15:52:06;24.80;96.80
32502;DHT22;18952;52.516;13.460;2022-09-09T15:54:34;24.80;96.30
32502;DHT22;18952;52.516;13.460;2022-09-09T15:57:05;24.80;96.70
32502;DHT22;18952;52.516;13.460;2022-09-09T15:59:32;24.80;96.60
32502;DHT22;18952;52.516;13.460;2022-09-09T16:02:03;24.80;96.20
32502;DHT22;18952;52.516;13.460;2022-09-09T16:04:30;24.80;96.20
32502;DHT22;18952;52.516;13.460;2022-09-09T16:07:02;24.90;95.20
32502;DHT22;18952;52.516;13.460;2022-09-09T16:09:31;24.90;95.40
32502;DHT22;18952;52.516;13.460;2022-09-09T16:11:59;25.00;95.20
32502;DHT22;18952;52.516;13.460;2022-09-09T16:14:27;24.90;94.90
32502;DHT22;18952;52.516;13.460;2022-09-09T16:16:55;24.80;94.10
32502;DHT22;18952;52.516;13.460;2022-09-09T16:19:26;24.70;94.60
32502;DHT22;18952;52.516;13.460;2022-09-09T16:21:54;24.50;94.80
32502;DHT22;18952;52.516;13.460;2022-09-09T16:24:21;24.40;94.60
32502;DHT22;18952;52.516;13.460;2022-09-09T16:26:52;24.20;94.80
32502;DHT22;18952;52.516;13.460;2022-09-09T16:29:22;24.10;94.50
32502;DHT22;18952;52.516;13.460;2022-09-09T16:31:50;23.90;94.60
32502;DHT22;18952;52.516;13.460;2022-09-09T16:34:18;23.70;94.80
32502;DHT22;18952;52.516;13.460;2022-09-09T16:36:47;23.50;95.10
32502;DHT22;18952;52.516;13.460;2022-09-09T16:39:16;23.40;95.20
32502;DHT22;18952;52.516;13.460;2022-09-09T16:41:46;23.20;95.80
32502;DHT22;18952;52.516;13.460;2022-09-09T16:44:14;23.00;95.90
32502;DHT22;18952;52.516;13.460;2022-09-09T16:46:43;22.90;96.40
32502;DHT22;18952;52.516;13.460;2022-09-09T16:49:13;22.70;96.70
32502;DHT22;18952;52.516;13.460;2022-09-09T16:51:48;22.70;97.00
32502;DHT22;18952;52.516;13.460;2022-09-09T16:54:16;22.60;97.40
32502;DHT22;18952;52.516;13.460;2022-09-09T16:56:46;22.40;98.30
32502;DHT22;18952;52.516;13.460;2022-09-09T16:59:19;22.30;99.40
32502;DHT22;18952;52.516;13.460;2022-09-09T17:01:49;22.20;99.90
32502;DHT22;18952;52.516;13.460;2022-09-09T17:04:26;22.00;99.90
32502;DHT22;18952;52.516;13.460;2022-09-09T17:06:54;21.90;99.90
32502;DHT22;18952;52.516;13.460;2022-09-09T17:09:23;21.70;99.90
32502;DHT22;18952;52.516;13.460;2022-09-09T17:11:54;21.60;99.90
32502;DHT22;18952;52.516;13.460;2022-09-09T17:14:22;21.50;99.90
32502;DHT22;18952;52.516;13.460;2022-09-09T17:16:50;21.50;99.90
32502;DHT22;18952;52.516;13.460;2022-09-09T17:19:19;21.30;99.90
32502;DHT22;18952;52.516;13.460;2022-09-09T17:21:48;21.20;99.90
32502;DHT22;18952;52.516;13.460;2022-09-09T17:24:36;21.10;99.90
32502;DHT22;18952;52.516;13.460;2022-09-09T17:27:04;21.00;99.90
32502;DHT22;18952;52.516;13.460;2022-09-09T17:29:32;20.90;99.90
32502;DHT22;18952;52.516;13.460;2022-09-09T17:32:00;20.80;99.90